Flight Track Log - Related Links

Times and Time Zones

All times are in EDT time to prevent confusion due to time zone crossing. See the TAM3859 flight status page for this flight to view local times or setup timezone preferences in your user account.

Time Position Orientation Groundspeed Altitude Reporting Facility
EDT Latitude Longitude Course Direction KTS MPH feet Rate Location/Type
Mon 12:05:02 PM -25.6250 -49.3220 195° South 350 403 11,100  Level FlightAware ADS-B
Mon 12:05:37 PM -25.6840 -49.3380 194° South 366 421 12,500 2,783 Climbing FlightAware ADS-B
Mon 12:06:11 PM -25.7410 -49.3540 194° South 365 420 14,300 2,640 Climbing FlightAware ADS-B
Mon 12:06:52 PM -25.8090 -49.3720 193° South 373 429 15,800 2,368 Climbing FlightAware ADS-B
Mon 12:07:27 PM -25.8670 -49.3880 194° South 376 433 17,300 1,200 Climbing FlightAware ADS-B
Mon 12:08:12 PM -25.9300 -49.4050 194° South 376 433 17,400 71 Climbing FlightAware ADS-B
Mon 12:08:51 PM -25.9860 -49.4210 194° South 376 433 17,400  Level FlightAware ADS-B
Mon 12:09:25 PM -26.0340 -49.4340 194° South 376 433 17,400  Level FlightAware ADS-B
Mon 12:10:02 PM -26.0880 -49.4490 194° South 376 433 17,400  Level FlightAware ADS-B
Mon 12:10:38 PM -26.1390 -49.4640 195° South 376 433 17,400  Level FlightAware ADS-B
Mon 12:11:29 PM -26.2120 -49.4840 194° South 376 433 17,400 4,051 Level FlightAware ADS-B
Mon 12:12:35 PM -26.4270 -49.5420 194° South 446 513 25,300 5,050 Climbing FlightAware ADS-B
Mon 12:13:10 PM -26.4980 -49.5620 194° South 455 524 25,900 1,295 Climbing FlightAware ADS-B
Mon 12:14:03 PM -26.5950 -49.5870 193° South 437 503 27,200 1,432 Climbing FlightAware ADS-B
Mon 12:14:38 PM -26.6710 -49.6090 195° South 421 484 28,000 750 Climbing FlightAware ADS-B
Mon 12:15:07 PM -26.7260 -49.6240 194° South 414 476 28,000  Level FlightAware ADS-B
Mon 12:15:48 PM -26.8000 -49.6480 196° South 405 466 28,000  Level FlightAware ADS-B
Mon 12:16:30 PM -26.8670 -49.6750 200° South 404 465 28,000  Level FlightAware ADS-B
Mon 12:16:59 PM -26.9250 -49.6970 199° South 405 466 28,000  Level FlightAware ADS-B
Mon 12:17:32 PM -26.9730 -49.7150 198° South 404 465 28,000  Level FlightAware ADS-B
Mon 12:18:18 PM -27.0550 -49.7470 199° South 404 465 28,000  Level FlightAware ADS-B
Mon 12:18:56 PM -27.1260 -49.7740 199° South 404 465 28,000  Level FlightAware ADS-B
Mon 12:19:29 PM -27.1820 -49.7960 199° South 406 467 28,000  Level FlightAware ADS-B
Mon 12:20:10 PM -27.2590 -49.8260 199° South 406 467 28,000  Level FlightAware ADS-B
Mon 12:20:43 PM -27.3110 -49.8460 199° South 404 465 28,000  Level FlightAware ADS-B
Mon 12:21:24 PM -27.3870 -49.8750 199° South 402 463 28,000  Level FlightAware ADS-B
Mon 12:22:02 PM -27.4460 -49.8980 199° South 400 460 28,000  Level FlightAware ADS-B
Mon 12:22:45 PM -27.5280 -49.9300 199° South 399 459 28,000  Level FlightAware ADS-B
Mon 12:23:27 PM -27.5980 -49.9570 199° South 398 458 28,000  Level FlightAware ADS-B
Mon 12:24:07 PM -27.6640 -49.9830 199° South 399 459 28,000  Level FlightAware ADS-B
Mon 12:24:44 PM -27.7190 -50.0050 199° South 399 459 28,000  Level FlightAware ADS-B
Mon 12:25:18 PM -27.7690 -50.0240 199° South 399 459 28,000  Level FlightAware ADS-B
Mon 12:25:51 PM -27.8600 -50.0600 199° South 398 458 28,000  Level FlightAware ADS-B
Mon 12:26:26 PM -27.9220 -50.0840 199° South 398 458 28,000  Level FlightAware ADS-B
Mon 12:27:07 PM -27.9940 -50.1120 199° South 397 457 28,000  Level FlightAware ADS-B
Mon 12:27:35 PM -28.0420 -50.1310 199° South 395 455 28,000  Level FlightAware ADS-B
Mon 12:28:17 PM -28.1170 -50.1610 199° South 396 456 28,000  Level FlightAware ADS-B
Mon 12:28:49 PM -28.1730 -50.1830 199° South 398 458 28,000  Level FlightAware ADS-B
Mon 12:29:25 PM -28.2250 -50.2030 199° South 398 458 28,000  Level FlightAware ADS-B
Mon 12:30:01 PM -28.2950 -50.2310 199° South 401 461 28,000 -182 Level FlightAware ADS-B
Mon 12:30:31 PM -28.3500 -50.2520 199° South 402 463 27,800 -400 Descending FlightAware ADS-B
Mon 12:31:16 PM -28.4300 -50.2850 200° South 406 467 27,500 -977 Descending FlightAware ADS-B
Mon 12:31:57 PM -28.4990 -50.3120 199° South 401 461 26,400 -2,250 Descending FlightAware ADS-B
Mon 12:32:36 PM -28.5700 -50.3400 199° South 401 461 24,500 -3,217 Descending FlightAware ADS-B
Mon 12:33:06 PM -28.6230 -50.3610 199° South 411 473 22,700 -4,000 Descending FlightAware ADS-B
Mon 12:33:36 PM -28.6780 -50.3830 199° South 428 493 20,500 -3,231 Descending FlightAware ADS-B
Mon 12:34:11 PM -28.7440 -50.4090 199° South 419 482 19,200 -2,743 Descending FlightAware ADS-B
Mon 12:34:46 PM -28.8020 -50.4360 202° Southwest 412 474 17,300 -3,343 Descending FlightAware ADS-B
Mon 12:35:21 PM -28.8630 -50.4720 207° Southwest 415 478 15,300 -3,343 Descending FlightAware ADS-B
Mon 12:35:56 PM -28.9260 -50.5090 207° Southwest 418 481 13,400 -2,083 Descending FlightAware ADS-B
Mon 12:36:33 PM -28.9800 -50.5390 206° Southwest 386 444 12,800 -1,000 Descending FlightAware ADS-B
Mon 12:37:08 PM -29.0430 -50.5640 199° South 357 411 12,200 -857 Descending FlightAware ADS-B
Mon 12:37:43 PM -29.0930 -50.5850 200° South 334 384 11,800 -800 Descending FlightAware ADS-B
Mon 12:38:23 PM -29.1490 -50.6090 201° Southwest 309 356 11,200 -880 Descending FlightAware ADS-B
Mon 12:38:58 PM -29.1940 -50.6280 200° South 301 346 10,700 -930 Descending FlightAware ADS-B
Mon 12:39:34 PM -29.2400 -50.6470 200° South 297 342 10,100 -982 Descending FlightAware ADS-B
Mon 12:39:53 PM -29.2660 -50.6580 200° South 293 337 9,800 -923 Descending FlightAware ADS-B
Mon 12:40:13 PM -29.2910 -50.6680 199° South 290 334 9,500 -933 Descending FlightAware ADS-B
Mon 12:40:38 PM -29.3210 -50.6810 201° Southwest 288 331 9,100 -1,000 Descending FlightAware ADS-B
Mon 12:41:07 PM -29.3620 -50.6980 200° South 287 330 8,600 -1,000 Descending FlightAware ADS-B
Mon 12:41:26 PM -29.3870 -50.7090 201° Southwest 288 331 8,300 -1,029 Descending FlightAware ADS-B
Mon 12:41:42 PM -29.4080 -50.7170 198° South 291 335 8,000 -1,059 Descending FlightAware ADS-B
Mon 12:42:00 PM -29.4310 -50.7270 201° Southwest 290 334 7,700 -900 Descending FlightAware ADS-B
Mon 12:42:22 PM -29.4580 -50.7390 201° Southwest 287 330 7,400 -1,000 Descending FlightAware ADS-B
Mon 12:42:42 PM -29.4830 -50.7490 199° South 286 329 7,000 -1,000 Descending FlightAware ADS-B
Mon 12:42:58 PM -29.5020 -50.7570 200° South 285 328 6,800 -1,000 Descending FlightAware ADS-B
Mon 12:43:18 PM -29.5290 -50.7680 200° South 285 328 6,400 -1,024 Descending FlightAware ADS-B
Mon 12:43:39 PM -29.5540 -50.7790 201° Southwest 283 326 6,100 -973 Descending FlightAware ADS-B
Mon 12:43:55 PM -29.5730 -50.7870 200° South 282 325 5,800 -882 Descending FlightAware ADS-B
Mon 12:44:13 PM -29.5960 -50.7970 201° Southwest 280 322 5,600 -500 Descending FlightAware ADS-B
Mon 12:44:43 PM -29.6320 -50.8120 200° South 279 321 5,400 -375 Descending FlightAware ADS-B
Mon 12:45:01 PM -29.6540 -50.8210 200° South 280 322 5,300 -273 Descending FlightAware ADS-B
Mon 12:45:27 PM -29.6860 -50.8350 201° Southwest 278 320 5,200 -400 Descending FlightAware ADS-B
Mon 12:45:46 PM -29.7080 -50.8440 200° South 279 321 5,000 -439 Descending FlightAware ADS-B
Mon 12:46:08 PM -29.7320 -50.8540 200° South 277 319 4,900 -316 Descending FlightAware ADS-B
Mon 12:46:24 PM -29.7540 -50.8630 200° South 273 314 4,800 -514 Descending FlightAware ADS-B
Mon 12:46:43 PM -29.7770 -50.8730 201° Southwest 271 312 4,600 -486 Descending FlightAware ADS-B
Mon 12:47:01 PM -29.7970 -50.8820 201° Southwest 273 314 4,500 -714 Descending FlightAware ADS-B
Mon 12:47:25 PM -29.8260 -50.8940 200° South 267 307 4,100 -1,350 Descending FlightAware ADS-B
Mon 12:47:41 PM -29.8460 -50.9030 201° Southwest 268 308 3,600 -1,500 Descending FlightAware ADS-B
Mon 12:48:01 PM -29.8690 -50.9120 199° South 264 304 3,200 -1,200 Descending FlightAware ADS-B
Mon 12:48:21 PM -29.8900 -50.9210 200° South 257 296 2,800 -1,050 Descending FlightAware ADS-B
Mon 12:48:41 PM -29.9120 -50.9300 200° South 249 287 2,500 -732 Descending FlightAware ADS-B
Mon 12:49:02 PM -29.9340 -50.9400 201° Southwest 237 273 2,300 -529 Descending FlightAware ADS-B
Mon 12:49:15 PM -29.9480 -50.9460 200° South 228 262 2,200 -500 Descending FlightAware ADS-B
Mon 12:49:38 PM -29.9690 -50.9550 200° South 215 247 2,000 -571 Descending FlightAware ADS-B
Mon 12:49:57 PM -29.9870 -50.9630 201° Southwest 204 235 1,800 -171 Descending FlightAware ADS-B
Mon 12:50:13 PM -29.9970 -50.9740 224° Southwest 190 219 1,900 261 Climbing FlightAware ADS-B
Mon 12:50:20 PM -29.9980 -50.9800 259° West 181 208 1,900  Level FlightAware ADS-B
Mon 12:50:24 PM -29.9990 -50.9840 254° West 176 203 1,900 -200 Level FlightAware ADS-B
Mon 12:50:50 PM -29.9980 -51.0040 273° West 151 174 1,800 -140 Descending FlightAware ADS-B
Mon 12:51:07 PM -29.9970 -51.0180 275° West 146 168 1,800  Level FlightAware ADS-B
Mon 12:51:25 PM -29.9970 -51.0320 270° West 142 163 1,800  Level FlightAware ADS-B
Mon 12:51:43 PM -29.9960 -51.0480 274° West 140 161 1,800 -162 Level FlightAware ADS-B
Mon 12:52:02 PM -29.9960 -51.0610 270° West 141 162 1,700 -529 Descending FlightAware ADS-B
Mon 12:52:17 PM -29.9960 -51.0730 270° West 135 155 1,500 -769 Descending FlightAware ADS-B
Mon 12:52:41 PM -29.9960 -51.0890 270° West 133 153 1,200 -682 Descending FlightAware ADS-B
Mon 12:53:01 PM -29.9960 -51.1030 270° West 132 152 1,000 -563 Descending FlightAware ADS-B
Mon 12:53:13 PM -29.9960 -51.1120 270° West 131 151 900 -600 Descending FlightAware ADS-B
Mon 12:53:31 PM -29.9950 -51.1250 275° West 135 155 700 -833 Descending FlightAware ADS-B
Mon 12:53:49 PM -29.9950 -51.1380 270° West 133 153 400 -1,000 Descending FlightAware ADS-B
Mon 12:54:25 PM -29.9950 -51.1630 270° West 136 157 -667 Descending FlightAware ADS-B

Login

Don't have an account? Register now (free) for customized features, flight alerts, and more!